sensor_id;sensor_type;location;lat;lon;timestamp;temperature;humidity
3550;DHT22;45572;48.804;8.330;2022-08-11T00:02:32;19.50;64.40
3550;DHT22;45572;48.804;8.330;2022-08-11T00:05:05;19.50;65.00
3550;DHT22;45572;48.804;8.330;2022-08-11T00:07:34;19.60;64.90
3550;DHT22;45572;48.804;8.330;2022-08-11T00:10:10;19.70;64.20
3550;DHT22;45572;48.804;8.330;2022-08-11T00:12:38;19.80;64.00
3550;DHT22;45572;48.804;8.330;2022-08-11T00:15:07;19.40;65.10
3550;DHT22;45572;48.804;8.330;2022-08-11T00:17:37;19.50;65.80
3550;DHT22;45572;48.804;8.330;2022-08-11T00:20:07;19.40;65.50
3550;DHT22;45572;48.804;8.330;2022-08-11T00:22:43;19.50;60.90
3550;DHT22;45572;48.804;8.330;2022-08-11T00:25:14;19.60;63.10
3550;DHT22;45572;48.804;8.330;2022-08-11T00:27:44;19.60;63.50
3550;DHT22;45572;48.804;8.330;2022-08-11T00:30:13;19.70;63.40
3550;DHT22;45572;48.804;8.330;2022-08-11T00:32:45;19.70;64.00
3550;DHT22;45572;48.804;8.330;2022-08-11T00:35:25;19.70;63.40
3550;DHT22;45572;48.804;8.330;2022-08-11T00:38:14;19.60;63.20
3550;DHT22;45572;48.804;8.330;2022-08-11T00:41:00;19.60;64.00
3550;DHT22;45572;48.804;8.330;2022-08-11T00:43:45;19.60;64.30
3550;DHT22;45572;48.804;8.330;2022-08-11T00:46:21;19.60;64.20
3550;DHT22;45572;48.804;8.330;2022-08-11T00:49:07;19.80;63.90
3550;DHT22;45572;48.804;8.330;2022-08-11T00:51:49;19.80;63.40
3550;DHT22;45572;48.804;8.330;2022-08-11T00:57:50;20.00;62.60
3550;DHT22;45572;48.804;8.330;2022-08-11T01:00:23;20.00;61.90
3550;DHT22;45572;48.804;8.330;2022-08-11T01:03:05;20.10;61.90
3550;DHT22;45572;48.804;8.330;2022-08-11T01:05:48;20.10;61.60
3550;DHT22;45572;48.804;8.330;2022-08-11T01:08:38;20.00;62.30
3550;DHT22;45572;48.804;8.330;2022-08-11T01:11:23;20.00;62.50
3550;DHT22;45572;48.804;8.330;2022-08-11T01:17:19;19.90;63.40
3550;DHT22;45572;48.804;8.330;2022-08-11T01:20:18;20.00;63.50
3550;DHT22;45572;48.804;8.330;2022-08-11T01:32:39;20.00;61.50
3550;DHT22;45572;48.804;8.330;2022-08-11T01:35:29;20.00;61.80
3550;DHT22;45572;48.804;8.330;2022-08-11T01:38:21;20.00;60.50
3550;DHT22;45572;48.804;8.330;2022-08-11T01:41:28;20.00;61.90
3550;DHT22;45572;48.804;8.330;2022-08-11T01:44:37;20.00;60.70
3550;DHT22;45572;48.804;8.330;2022-08-11T01:47:21;19.90;60.60
3550;DHT22;45572;48.804;8.330;2022-08-11T01:50:29;19.70;61.00
3550;DHT22;45572;48.804;8.330;2022-08-11T01:53:11;19.70;60.30
3550;DHT22;45572;48.804;8.330;2022-08-11T01:55:48;19.60;60.70
3550;DHT22;45572;48.804;8.330;2022-08-11T01:58:28;19.50;61.50
3550;DHT22;45572;48.804;8.330;2022-08-11T02:01:21;19.50;61.20
3550;DHT22;45572;48.804;8.330;2022-08-11T02:04:02;19.50;61.30
3550;DHT22;45572;48.804;8.330;2022-08-11T02:06:41;19.40;61.40
3550;DHT22;45572;48.804;8.330;2022-08-11T02:09:32;19.40;61.30
3550;DHT22;45572;48.804;8.330;2022-08-11T02:12:27;19.50;61.20
3550;DHT22;45572;48.804;8.330;2022-08-11T02:15:10;19.40;61.70
3550;DHT22;45572;48.804;8.330;2022-08-11T02:17:52;19.40;61.40
3550;DHT22;45572;48.804;8.330;2022-08-11T02:20:26;19.30;62.00
3550;DHT22;45572;48.804;8.330;2022-08-11T02:23:20;19.30;61.90
3550;DHT22;45572;48.804;8.330;2022-08-11T02:26:25;19.20;62.00
3550;DHT22;45572;48.804;8.330;2022-08-11T02:29:02;19.40;62.00
3550;DHT22;45572;48.804;8.330;2022-08-11T02:31:40;19.30;61.70
3550;DHT22;45572;48.804;8.330;2022-08-11T02:34:47;19.20;62.20
3550;DHT22;45572;48.804;8.330;2022-08-11T02:37:35;19.30;62.40
3550;DHT22;45572;48.804;8.330;2022-08-11T02:40:15;19.30;62.30
3550;DHT22;45572;48.804;8.330;2022-08-11T02:42:55;19.30;62.80
3550;DHT22;45572;48.804;8.330;2022-08-11T02:48:29;19.40;63.40
3550;DHT22;45572;48.804;8.330;2022-08-11T02:51:19;19.50;63.00
3550;DHT22;45572;48.804;8.330;2022-08-11T02:53:58;19.50;63.70
3550;DHT22;45572;48.804;8.330;2022-08-11T02:56:46;19.40;63.40
3550;DHT22;45572;48.804;8.330;2022-08-11T02:59:32;19.30;63.90
3550;DHT22;45572;48.804;8.330;2022-08-11T03:02:32;19.30;64.30
3550;DHT22;45572;48.804;8.330;2022-08-11T03:05:14;19.30;64.60
3550;DHT22;45572;48.804;8.330;2022-08-11T03:07:55;19.20;64.60
3550;DHT22;45572;48.804;8.330;2022-08-11T03:10:35;19.10;64.80
3550;DHT22;45572;48.804;8.330;2022-08-11T03:13:17;19.10;65.10
3550;DHT22;45572;48.804;8.330;2022-08-11T03:16:10;18.90;65.40
3550;DHT22;45572;48.804;8.330;2022-08-11T03:19:02;18.80;65.90
3550;DHT22;45572;48.804;8.330;2022-08-11T03:21:41;18.70;66.20
3550;DHT22;45572;48.804;8.330;2022-08-11T03:24:35;18.70;66.60
3550;DHT22;45572;48.804;8.330;2022-08-11T03:27:08;18.50;66.90
3550;DHT22;45572;48.804;8.330;2022-08-11T03:29:46;18.40;67.70
3550;DHT22;45572;48.804;8.330;2022-08-11T03:32:24;18.40;67.80
3550;DHT22;45572;48.804;8.330;2022-08-11T03:34:56;18.30;68.00
3550;DHT22;45572;48.804;8.330;2022-08-11T03:37:37;18.20;68.20
3550;DHT22;45572;48.804;8.330;2022-08-11T03:40:32;18.20;68.40
3550;DHT22;45572;48.804;8.330;2022-08-11T03:43:23;18.10;68.80
3550;DHT22;45572;48.804;8.330;2022-08-11T03:46:02;17.90;69.50
3550;DHT22;45572;48.804;8.330;2022-08-11T03:48:41;17.90;69.50
3550;DHT22;45572;48.804;8.330;2022-08-11T03:51:18;17.90;69.50
3550;DHT22;45572;48.804;8.330;2022-08-11T03:54:10;17.80;70.20
3550;DHT22;45572;48.804;8.330;2022-08-11T03:57:14;17.90;69.80
3550;DHT22;45572;48.804;8.330;2022-08-11T04:00:09;17.70;70.50
3550;DHT22;45572;48.804;8.330;2022-08-11T04:08:54;17.70;70.50
3550;DHT22;45572;48.804;8.330;2022-08-11T04:11:50;17.80;70.50
3550;DHT22;45572;48.804;8.330;2022-08-11T04:17:49;17.50;71.30
3550;DHT22;45572;48.804;8.330;2022-08-11T04:20:41;17.50;71.40
3550;DHT22;45572;48.804;8.330;2022-08-11T04:23:23;17.60;71.50
3550;DHT22;45572;48.804;8.330;2022-08-11T04:29:16;17.40;72.00
3550;DHT22;45572;48.804;8.330;2022-08-11T04:32:15;17.40;72.10
3550;DHT22;45572;48.804;8.330;2022-08-11T04:35:10;17.30;72.10
3550;DHT22;45572;48.804;8.330;2022-08-11T04:37:58;17.30;72.40
3550;DHT22;45572;48.804;8.330;2022-08-11T04:40:48;17.30;72.20
3550;DHT22;45572;48.804;8.330;2022-08-11T04:43:46;17.30;72.10
3550;DHT22;45572;48.804;8.330;2022-08-11T04:49:39;17.20;72.60
3550;DHT22;45572;48.804;8.330;2022-08-11T04:52:47;17.30;72.70
3550;DHT22;45572;48.804;8.330;2022-08-11T04:56:00;17.40;72.50
3550;DHT22;45572;48.804;8.330;2022-08-11T04:58:59;17.30;72.90
3550;DHT22;45572;48.804;8.330;2022-08-11T05:02:14;17.30;72.80
3550;DHT22;45572;48.804;8.330;2022-08-11T05:04:55;17.40;72.80
3550;DHT22;45572;48.804;8.330;2022-08-11T05:08:05;17.40;73.50
3550;DHT22;45572;48.804;8.330;2022-08-11T05:10:54;17.50;72.80
3550;DHT22;45572;48.804;8.330;2022-08-11T05:13:27;17.60;72.60
3550;DHT22;45572;48.804;8.330;2022-08-11T05:16:14;17.60;72.60
3550;DHT22;45572;48.804;8.330;2022-08-11T05:18:58;17.60;73.10
3550;DHT22;45572;48.804;8.330;2022-08-11T05:21:47;17.70;73.10
3550;DHT22;45572;48.804;8.330;2022-08-11T05:24:38;17.70;73.10
3550;DHT22;45572;48.804;8.330;2022-08-11T05:27:28;17.80;72.90
3550;DHT22;45572;48.804;8.330;2022-08-11T05:30:11;18.00;72.80
3550;DHT22;45572;48.804;8.330;2022-08-11T05:33:04;18.20;72.70
3550;DHT22;45572;48.804;8.330;2022-08-11T05:35:49;18.40;72.00
3550;DHT22;45572;48.804;8.330;2022-08-11T05:38:30;18.50;71.20
3550;DHT22;45572;48.804;8.330;2022-08-11T05:41:18;18.70;72.10
3550;DHT22;45572;48.804;8.330;2022-08-11T05:44:02;19.00;71.60
3550;DHT22;45572;48.804;8.330;2022-08-11T05:46:48;19.20;71.90
3550;DHT22;45572;48.804;8.330;2022-08-11T05:49:32;19.40;70.80
3550;DHT22;45572;48.804;8.330;2022-08-11T05:52:15;19.70;70.20
3550;DHT22;45572;48.804;8.330;2022-08-11T05:55:02;20.00;69.70
3550;DHT22;45572;48.804;8.330;2022-08-11T05:57:47;20.20;69.10
3550;DHT22;45572;48.804;8.330;2022-08-11T06:00:18;20.50;68.30
3550;DHT22;45572;48.804;8.330;2022-08-11T06:02:49;20.80;68.30
3550;DHT22;45572;48.804;8.330;2022-08-11T06:05:24;20.70;67.70
3550;DHT22;45572;48.804;8.330;2022-08-11T06:08:09;20.80;66.80
3550;DHT22;45572;48.804;8.330;2022-08-11T06:10:40;21.10;66.40
3550;DHT22;45572;48.804;8.330;2022-08-11T06:13:14;21.60;65.40
3550;DHT22;45572;48.804;8.330;2022-08-11T06:15:45;22.50;63.90
3550;DHT22;45572;48.804;8.330;2022-08-11T06:18:14;23.70;62.20
3550;DHT22;45572;48.804;8.330;2022-08-11T06:20:46;24.30;58.60
3550;DHT22;45572;48.804;8.330;2022-08-11T06:23:15;25.70;56.00
3550;DHT22;45572;48.804;8.330;2022-08-11T06:25:45;26.90;51.40
3550;DHT22;45572;48.804;8.330;2022-08-11T06:28:16;28.00;50.60
3550;DHT22;45572;48.804;8.330;2022-08-11T06:30:47;29.20;49.00
3550;DHT22;45572;48.804;8.330;2022-08-11T06:33:17;29.50;45.00
3550;DHT22;45572;48.804;8.330;2022-08-11T06:35:58;29.30;47.40
3550;DHT22;45572;48.804;8.330;2022-08-11T06:38:37;29.60;45.50
3550;DHT22;45572;48.804;8.330;2022-08-11T06:41:17;31.00;45.00
3550;DHT22;45572;48.804;8.330;2022-08-11T06:44:07;32.20;43.80
3550;DHT22;45572;48.804;8.330;2022-08-11T06:46:38;33.40;41.70
3550;DHT22;45572;48.804;8.330;2022-08-11T06:49:08;34.10;40.60
3550;DHT22;45572;48.804;8.330;2022-08-11T06:51:59;34.60;40.00
3550;DHT22;45572;48.804;8.330;2022-08-11T06:54:32;35.10;39.30
3550;DHT22;45572;48.804;8.330;2022-08-11T06:57:02;35.70;38.60
3550;DHT22;45572;48.804;8.330;2022-08-11T07:00:04;35.40;38.80
3550;DHT22;45572;48.804;8.330;2022-08-11T07:02:50;36.10;38.20
3550;DHT22;45572;48.804;8.330;2022-08-11T07:05:22;36.80;37.10
3550;DHT22;45572;48.804;8.330;2022-08-11T07:08:13;36.90;37.30
3550;DHT22;45572;48.804;8.330;2022-08-11T07:11:25;37.20;37.50
3550;DHT22;45572;48.804;8.330;2022-08-11T07:14:10;37.90;36.20
3550;DHT22;45572;48.804;8.330;2022-08-11T07:16:55;38.30;35.30
3550;DHT22;45572;48.804;8.330;2022-08-11T07:19:27;38.80;36.00
3550;DHT22;45572;48.804;8.330;2022-08-11T07:22:10;39.40;35.40
3550;DHT22;45572;48.804;8.330;2022-08-11T07:24:54;40.10;34.30
3550;DHT22;45572;48.804;8.330;2022-08-11T07:27:41;40.30;34.00
3550;DHT22;45572;48.804;8.330;2022-08-11T07:30:25;41.00;33.30
3550;DHT22;45572;48.804;8.330;2022-08-11T07:32:57;41.00;30.70
3550;DHT22;45572;48.804;8.330;2022-08-11T07:35:30;40.90;31.60
3550;DHT22;45572;48.804;8.330;2022-08-11T07:38:03;40.20;32.10
3550;DHT22;45572;48.804;8.330;2022-08-11T07:40:34;38.70;33.40
3550;DHT22;45572;48.804;8.330;2022-08-11T07:43:03;39.00;33.30
3550;DHT22;45572;48.804;8.330;2022-08-11T07:45:33;39.10;32.40
3550;DHT22;45572;48.804;8.330;2022-08-11T07:48:17;39.80;31.30
3550;DHT22;45572;48.804;8.330;2022-08-11T07:51:00;39.10;32.50
3550;DHT22;45572;48.804;8.330;2022-08-11T07:53:42;39.30;32.40
3550;DHT22;45572;48.804;8.330;2022-08-11T07:56:32;39.10;31.80
3550;DHT22;45572;48.804;8.330;2022-08-11T07:59:20;38.20;32.10
3550;DHT22;45572;48.804;8.330;2022-08-11T08:02:23;38.10;32.90
3550;DHT22;45572;48.804;8.330;2022-08-11T08:05:06;38.10;31.90
3550;DHT22;45572;48.804;8.330;2022-08-11T08:07:48;37.80;32.10
3550;DHT22;45572;48.804;8.330;2022-08-11T08:10:30;37.60;32.60
3550;DHT22;45572;48.804;8.330;2022-08-11T08:13:13;36.10;34.10
3550;DHT22;45572;48.804;8.330;2022-08-11T08:15:55;36.00;34.30
3550;DHT22;45572;48.804;8.330;2022-08-11T08:18:38;36.40;34.00
3550;DHT22;45572;48.804;8.330;2022-08-11T08:21:08;35.10;34.20
3550;DHT22;45572;48.804;8.330;2022-08-11T08:23:42;35.50;35.00
3550;DHT22;45572;48.804;8.330;2022-08-11T08:26:13;36.30;33.70
3550;DHT22;45572;48.804;8.330;2022-08-11T08:28:56;35.60;33.80
3550;DHT22;45572;48.804;8.330;2022-08-11T08:31:45;35.50;33.90
3550;DHT22;45572;48.804;8.330;2022-08-11T08:34:14;35.30;35.00
3550;DHT22;45572;48.804;8.330;2022-08-11T08:36:46;35.70;34.00
3550;DHT22;45572;48.804;8.330;2022-08-11T08:39:18;34.10;35.10
3550;DHT22;45572;48.804;8.330;2022-08-11T08:41:48;33.80;36.50
3550;DHT22;45572;48.804;8.330;2022-08-11T08:44:20;34.60;34.50
3550;DHT22;45572;48.804;8.330;2022-08-11T08:47:11;35.00;34.30
3550;DHT22;45572;48.804;8.330;2022-08-11T08:50:02;35.60;32.80
3550;DHT22;45572;48.804;8.330;2022-08-11T08:52:36;36.00;32.60
3550;DHT22;45572;48.804;8.330;2022-08-11T08:55:18;36.30;32.50
3550;DHT22;45572;48.804;8.330;2022-08-11T08:57:48;36.10;32.50
3550;DHT22;45572;48.804;8.330;2022-08-11T09:00:18;36.50;33.20
3550;DHT22;45572;48.804;8.330;2022-08-11T09:02:51;37.30;32.30
3550;DHT22;45572;48.804;8.330;2022-08-11T09:05:20;37.90;30.80
3550;DHT22;45572;48.804;8.330;2022-08-11T09:07:53;37.40;31.60
3550;DHT22;45572;48.804;8.330;2022-08-11T09:10:24;36.60;32.70
3550;DHT22;45572;48.804;8.330;2022-08-11T09:12:52;37.00;32.10
3550;DHT22;45572;48.804;8.330;2022-08-11T09:15:22;36.50;31.60
3550;DHT22;45572;48.804;8.330;2022-08-11T09:17:53;37.10;31.80
3550;DHT22;45572;48.804;8.330;2022-08-11T09:20:25;36.90;30.90
3550;DHT22;45572;48.804;8.330;2022-08-11T09:22:57;36.60;31.20
3550;DHT22;45572;48.804;8.330;2022-08-11T09:26:00;36.90;32.30
3550;DHT22;45572;48.804;8.330;2022-08-11T09:28:43;36.10;31.70
3550;DHT22;45572;48.804;8.330;2022-08-11T09:31:13;35.90;32.40
3550;DHT22;45572;48.804;8.330;2022-08-11T09:33:42;35.00;33.80
3550;DHT22;45572;48.804;8.330;2022-08-11T09:36:12;35.00;33.40
3550;DHT22;45572;48.804;8.330;2022-08-11T09:38:56;36.00;32.90
3550;DHT22;45572;48.804;8.330;2022-08-11T09:41:39;36.70;31.70
3550;DHT22;45572;48.804;8.330;2022-08-11T09:44:28;37.00;32.00
3550;DHT22;45572;48.804;8.330;2022-08-11T09:47:11;35.70;31.90
3550;DHT22;45572;48.804;8.330;2022-08-11T09:49:42;34.60;33.90
3550;DHT22;45572;48.804;8.330;2022-08-11T09:52:11;35.10;32.20
3550;DHT22;45572;48.804;8.330;2022-08-11T09:54:42;34.60;33.00
3550;DHT22;45572;48.804;8.330;2022-08-11T09:57:16;35.60;32.50
3550;DHT22;45572;48.804;8.330;2022-08-11T09:59:58;35.90;32.40
3550;DHT22;45572;48.804;8.330;2022-08-11T10:02:42;36.60;31.50
3550;DHT22;45572;48.804;8.330;2022-08-11T10:05:14;37.30;31.40
3550;DHT22;45572;48.804;8.330;2022-08-11T10:07:58;38.10;30.10
3550;DHT22;45572;48.804;8.330;2022-08-11T10:10:28;38.50;29.70
3550;DHT22;45572;48.804;8.330;2022-08-11T10:13:03;38.80;29.70
3550;DHT22;45572;48.804;8.330;2022-08-11T10:15:53;37.60;31.00
3550;DHT22;45572;48.804;8.330;2022-08-11T10:18:42;37.10;31.30
3550;DHT22;45572;48.804;8.330;2022-08-11T10:21:24;37.30;31.30
3550;DHT22;45572;48.804;8.330;2022-08-11T10:23:55;37.90;30.90
3550;DHT22;45572;48.804;8.330;2022-08-11T10:26:38;38.60;32.00
3550;DHT22;45572;48.804;8.330;2022-08-11T10:29:23;38.80;30.10
3550;DHT22;45572;48.804;8.330;2022-08-11T10:32:19;39.10;30.10
3550;DHT22;45572;48.804;8.330;2022-08-11T10:35:22;38.80;30.60
3550;DHT22;45572;48.804;8.330;2022-08-11T10:37:52;38.80;31.40
3550;DHT22;45572;48.804;8.330;2022-08-11T10:40:37;39.60;30.50
3550;DHT22;45572;48.804;8.330;2022-08-11T10:43:08;40.30;30.50
3550;DHT22;45572;48.804;8.330;2022-08-11T10:45:44;40.70;29.90
3550;DHT22;45572;48.804;8.330;2022-08-11T10:48:28;40.00;30.10
3550;DHT22;45572;48.804;8.330;2022-08-11T10:50:57;39.70;30.60
3550;DHT22;45572;48.804;8.330;2022-08-11T10:53:41;39.80;30.20
3550;DHT22;45572;48.804;8.330;2022-08-11T10:56:26;40.10;29.50
3550;DHT22;45572;48.804;8.330;2022-08-11T10:59:12;40.00;30.00
3550;DHT22;45572;48.804;8.330;2022-08-11T11:01:43;40.20;29.50
3550;DHT22;45572;48.804;8.330;2022-08-11T11:04:13;39.80;29.50
3550;DHT22;45572;48.804;8.330;2022-08-11T11:06:50;38.40;30.90
3550;DHT22;45572;48.804;8.330;2022-08-11T11:09:24;37.90;31.00
3550;DHT22;45572;48.804;8.330;2022-08-11T11:11:58;37.60;31.10
3550;DHT22;45572;48.804;8.330;2022-08-11T11:14:42;37.00;31.60
3550;DHT22;45572;48.804;8.330;2022-08-11T11:17:27;37.30;31.50
3550;DHT22;45572;48.804;8.330;2022-08-11T11:20:13;38.00;30.90
3550;DHT22;45572;48.804;8.330;2022-08-11T11:23:06;38.60;31.60
3550;DHT22;45572;48.804;8.330;2022-08-11T11:25:54;39.10;29.90
3550;DHT22;45572;48.804;8.330;2022-08-11T11:28:53;39.20;30.20
3550;DHT22;45572;48.804;8.330;2022-08-11T11:31:38;39.70;29.60
3550;DHT22;45572;48.804;8.330;2022-08-11T11:34:19;39.40;29.90
3550;DHT22;45572;48.804;8.330;2022-08-11T11:36:53;39.80;29.10
3550;DHT22;45572;48.804;8.330;2022-08-11T11:39:23;38.70;29.80
3550;DHT22;45572;48.804;8.330;2022-08-11T11:41:54;39.00;29.60
3550;DHT22;45572;48.804;8.330;2022-08-11T11:44:23;39.10;30.40
3550;DHT22;45572;48.804;8.330;2022-08-11T11:46:53;38.90;29.80
3550;DHT22;45572;48.804;8.330;2022-08-11T11:49:24;39.20;29.70
3550;DHT22;45572;48.804;8.330;2022-08-11T11:51:56;38.80;29.80
3550;DHT22;45572;48.804;8.330;2022-08-11T11:54:25;38.50;29.60
3550;DHT22;45572;48.804;8.330;2022-08-11T11:56:55;37.80;30.00
3550;DHT22;45572;48.804;8.330;2022-08-11T11:59:25;37.50;29.90
3550;DHT22;45572;48.804;8.330;2022-08-11T12:02:12;37.80;29.40
3550;DHT22;45572;48.804;8.330;2022-08-11T12:04:43;38.00;29.30
3550;DHT22;45572;48.804;8.330;2022-08-11T12:07:13;37.80;29.50
3550;DHT22;45572;48.804;8.330;2022-08-11T12:09:58;38.00;29.90
3550;DHT22;45572;48.804;8.330;2022-08-11T12:12:26;38.40;29.10
3550;DHT22;45572;48.804;8.330;2022-08-11T12:15:08;38.50;29.90
3550;DHT22;45572;48.804;8.330;2022-08-11T12:17:38;39.40;28.90
3550;DHT22;45572;48.804;8.330;2022-08-11T12:20:07;39.80;28.30
3550;DHT22;45572;48.804;8.330;2022-08-11T12:22:55;39.50;28.10
3550;DHT22;45572;48.804;8.330;2022-08-11T12:25:41;39.30;28.40
3550;DHT22;45572;48.804;8.330;2022-08-11T12:28:44;38.50;29.50
3550;DHT22;45572;48.804;8.330;2022-08-11T12:31:13;38.00;30.30
3550;DHT22;45572;48.804;8.330;2022-08-11T12:33:42;36.60;29.90
3550;DHT22;45572;48.804;8.330;2022-08-11T12:36:13;36.20;31.00
3550;DHT22;45572;48.804;8.330;2022-08-11T12:38:44;35.10;31.80
3550;DHT22;45572;48.804;8.330;2022-08-11T12:41:18;34.30;32.80
3550;DHT22;45572;48.804;8.330;2022-08-11T12:44:01;32.70;33.60
3550;DHT22;45572;48.804;8.330;2022-08-11T12:46:48;32.30;34.70
3550;DHT22;45572;48.804;8.330;2022-08-11T12:49:19;32.00;34.90
3550;DHT22;45572;48.804;8.330;2022-08-11T12:52:09;32.00;36.00
3550;DHT22;45572;48.804;8.330;2022-08-11T12:54:47;31.90;35.40
3550;DHT22;45572;48.804;8.330;2022-08-11T12:57:19;31.90;36.80
3550;DHT22;45572;48.804;8.330;2022-08-11T13:00:06;32.10;37.10
3550;DHT22;45572;48.804;8.330;2022-08-11T13:02:49;32.00;36.40
3550;DHT22;45572;48.804;8.330;2022-08-11T13:05:32;32.20;37.10
3550;DHT22;45572;48.804;8.330;2022-08-11T13:08:11;32.20;35.40
3550;DHT22;45572;48.804;8.330;2022-08-11T13:10:40;32.20;35.60
3550;DHT22;45572;48.804;8.330;2022-08-11T13:13:22;32.20;36.30
3550;DHT22;45572;48.804;8.330;2022-08-11T13:16:10;32.20;36.60
3550;DHT22;45572;48.804;8.330;2022-08-11T13:18:40;32.20;35.30
3550;DHT22;45572;48.804;8.330;2022-08-11T13:21:11;32.10;36.20
3550;DHT22;45572;48.804;8.330;2022-08-11T13:23:47;32.10;36.70
3550;DHT22;45572;48.804;8.330;2022-08-11T13:26:31;32.00;36.30
3550;DHT22;45572;48.804;8.330;2022-08-11T13:29:17;32.00;36.40
3550;DHT22;45572;48.804;8.330;2022-08-11T13:31:46;32.00;36.20
3550;DHT22;45572;48.804;8.330;2022-08-11T13:34:15;31.70;36.10
3550;DHT22;45572;48.804;8.330;2022-08-11T13:36:51;31.70;35.60
3550;DHT22;45572;48.804;8.330;2022-08-11T13:39:20;31.70;36.10
3550;DHT22;45572;48.804;8.330;2022-08-11T13:41:50;31.70;36.50
3550;DHT22;45572;48.804;8.330;2022-08-11T13:44:19;31.70;36.00
3550;DHT22;45572;48.804;8.330;2022-08-11T13:46:52;31.70;36.40
3550;DHT22;45572;48.804;8.330;2022-08-11T13:49:21;31.80;36.00
3550;DHT22;45572;48.804;8.330;2022-08-11T13:51:51;31.80;36.20
3550;DHT22;45572;48.804;8.330;2022-08-11T13:54:22;31.90;35.30
3550;DHT22;45572;48.804;8.330;2022-08-11T13:56:54;31.70;35.50
3550;DHT22;45572;48.804;8.330;2022-08-11T13:59:24;31.80;36.30
3550;DHT22;45572;48.804;8.330;2022-08-11T14:01:58;31.90;36.10
3550;DHT22;45572;48.804;8.330;2022-08-11T14:04:53;31.90;36.40
3550;DHT22;45572;48.804;8.330;2022-08-11T14:07:26;31.90;35.70
3550;DHT22;45572;48.804;8.330;2022-08-11T14:10:00;31.80;35.70
3550;DHT22;45572;48.804;8.330;2022-08-11T14:12:30;31.70;36.00
3550;DHT22;45572;48.804;8.330;2022-08-11T14:15:15;31.70;35.70
3550;DHT22;45572;48.804;8.330;2022-08-11T14:17:50;31.70;35.50
3550;DHT22;45572;48.804;8.330;2022-08-11T14:20:19;31.60;35.70
3550;DHT22;45572;48.804;8.330;2022-08-11T14:23:09;31.60;35.50
3550;DHT22;45572;48.804;8.330;2022-08-11T14:25:39;31.60;36.10
3550;DHT22;45572;48.804;8.330;2022-08-11T14:28:30;31.60;36.00
3550;DHT22;45572;48.804;8.330;2022-08-11T14:31:08;31.70;35.70
3550;DHT22;45572;48.804;8.330;2022-08-11T14:33:36;31.70;35.80
3550;DHT22;45572;48.804;8.330;2022-08-11T14:36:25;31.80;35.90
3550;DHT22;45572;48.804;8.330;2022-08-11T14:38:56;31.80;35.00
3550;DHT22;45572;48.804;8.330;2022-08-11T14:41:24;31.70;35.90
3550;DHT22;45572;48.804;8.330;2022-08-11T14:44:28;31.70;36.10
3550;DHT22;45572;48.804;8.330;2022-08-11T14:47:11;31.70;36.00
3550;DHT22;45572;48.804;8.330;2022-08-11T14:49:53;31.80;35.70
3550;DHT22;45572;48.804;8.330;2022-08-11T14:52:36;31.90;35.90
3550;DHT22;45572;48.804;8.330;2022-08-11T14:55:07;31.80;35.70
3550;DHT22;45572;48.804;8.330;2022-08-11T14:57:49;31.90;35.10
3550;DHT22;45572;48.804;8.330;2022-08-11T15:00:22;31.70;34.70
3550;DHT22;45572;48.804;8.330;2022-08-11T15:02:51;31.70;35.20
3550;DHT22;45572;48.804;8.330;2022-08-11T15:05:34;31.50;34.70
3550;DHT22;45572;48.804;8.330;2022-08-11T15:08:03;31.60;35.20
3550;DHT22;45572;48.804;8.330;2022-08-11T15:10:33;31.60;35.60
3550;DHT22;45572;48.804;8.330;2022-08-11T15:13:02;31.50;35.50
3550;DHT22;45572;48.804;8.330;2022-08-11T15:15:31;31.50;36.00
3550;DHT22;45572;48.804;8.330;2022-08-11T15:18:14;31.60;35.70
3550;DHT22;45572;48.804;8.330;2022-08-11T15:20:43;31.60;35.50
3550;DHT22;45572;48.804;8.330;2022-08-11T15:23:25;31.60;35.10
3550;DHT22;45572;48.804;8.330;2022-08-11T15:26:12;31.60;35.50
3550;DHT22;45572;48.804;8.330;2022-08-11T15:28:43;31.50;35.70
3550;DHT22;45572;48.804;8.330;2022-08-11T15:31:28;31.60;35.40
3550;DHT22;45572;48.804;8.330;2022-08-11T15:34:18;31.60;35.50
3550;DHT22;45572;48.804;8.330;2022-08-11T15:37:04;31.60;35.00
3550;DHT22;45572;48.804;8.330;2022-08-11T15:39:49;31.50;35.20
3550;DHT22;45572;48.804;8.330;2022-08-11T15:42:33;31.50;35.20
3550;DHT22;45572;48.804;8.330;2022-08-11T15:45:21;31.50;35.30
3550;DHT22;45572;48.804;8.330;2022-08-11T15:48:08;31.30;35.60
3550;DHT22;45572;48.804;8.330;2022-08-11T15:50:39;31.30;35.30
3550;DHT22;45572;48.804;8.330;2022-08-11T15:53:10;31.30;34.80
3550;DHT22;45572;48.804;8.330;2022-08-11T15:55:42;31.30;35.00
3550;DHT22;45572;48.804;8.330;2022-08-11T15:58:12;31.30;35.10
3550;DHT22;45572;48.804;8.330;2022-08-11T16:00:56;31.30;34.90
3550;DHT22;45572;48.804;8.330;2022-08-11T16:03:41;31.30;35.20
3550;DHT22;45572;48.804;8.330;2022-08-11T16:06:36;31.30;36.00
3550;DHT22;45572;48.804;8.330;2022-08-11T16:09:14;31.20;34.90
3550;DHT22;45572;48.804;8.330;2022-08-11T16:11:47;31.30;35.50
3550;DHT22;45572;48.804;8.330;2022-08-11T16:14:18;31.20;35.20
3550;DHT22;45572;48.804;8.330;2022-08-11T16:17:01;31.10;34.90
3550;DHT22;45572;48.804;8.330;2022-08-11T16:19:30;31.00;35.20
3550;DHT22;45572;48.804;8.330;2022-08-11T16:22:04;31.00;35.40
3550;DHT22;45572;48.804;8.330;2022-08-11T16:24:34;31.00;35.10
3550;DHT22;45572;48.804;8.330;2022-08-11T16:27:24;31.10;35.10
3550;DHT22;45572;48.804;8.330;2022-08-11T16:29:55;31.00;34.90
3550;DHT22;45572;48.804;8.330;2022-08-11T16:32:24;31.00;34.30
3550;DHT22;45572;48.804;8.330;2022-08-11T16:34:59;30.90;34.80
3550;DHT22;45572;48.804;8.330;2022-08-11T16:37:42;30.80;34.70
3550;DHT22;45572;48.804;8.330;2022-08-11T16:40:25;30.80;35.90
3550;DHT22;45572;48.804;8.330;2022-08-11T16:42:53;30.80;35.30
3550;DHT22;45572;48.804;8.330;2022-08-11T16:45:40;30.80;35.90
3550;DHT22;45572;48.804;8.330;2022-08-11T16:48:25;30.70;35.80
3550;DHT22;45572;48.804;8.330;2022-08-11T16:51:04;30.70;35.20
3550;DHT22;45572;48.804;8.330;2022-08-11T16:53:33;30.60;34.70
3550;DHT22;45572;48.804;8.330;2022-08-11T16:56:24;30.70;35.40
3550;DHT22;45572;48.804;8.330;2022-08-11T16:58:54;30.70;34.60
3550;DHT22;45572;48.804;8.330;2022-08-11T17:01:39;30.70;34.80
3550;DHT22;45572;48.804;8.330;2022-08-11T17:04:15;30.70;34.70
3550;DHT22;45572;48.804;8.330;2022-08-11T17:06:58;30.60;34.90
3550;DHT22;45572;48.804;8.330;2022-08-11T17:10:05;30.60;34.80
3550;DHT22;45572;48.804;8.330;2022-08-11T17:13:09;30.40;35.40
3550;DHT22;45572;48.804;8.330;2022-08-11T17:15:40;30.40;35.40
3550;DHT22;45572;48.804;8.330;2022-08-11T17:18:24;30.40;35.30
3550;DHT22;45572;48.804;8.330;2022-08-11T17:21:11;30.30;35.50
3550;DHT22;45572;48.804;8.330;2022-08-11T17:23:42;30.30;35.90
3550;DHT22;45572;48.804;8.330;2022-08-11T17:26:21;30.30;35.90
3550;DHT22;45572;48.804;8.330;2022-08-11T17:28:59;30.20;35.60
3550;DHT22;45572;48.804;8.330;2022-08-11T17:31:28;30.10;35.90
3550;DHT22;45572;48.804;8.330;2022-08-11T17:34:12;30.10;35.90
3550;DHT22;45572;48.804;8.330;2022-08-11T17:36:55;30.00;35.70
3550;DHT22;45572;48.804;8.330;2022-08-11T17:39:28;30.00;36.20
3550;DHT22;45572;48.804;8.330;2022-08-11T17:41:58;29.90;36.10
3550;DHT22;45572;48.804;8.330;2022-08-11T17:44:41;29.80;36.30